Station info - map view · info · telemetry · weather · raw · status · beacons · messages · bulletins · browse · moving · my account
Callsign, ship name or locator: Clear       
It is possible to search using wildcards (*?) after a prefix. Example: OH*
APRS station N8ATZ-9 - show graphs
Map loading...
Mic-E message: Off duty
Location: 40°49.11' N 81°28.17' W - locator EN90GT36PK - show map - static map
1.6 miles North bearing 7° from Perry Heights, Stark County, Ohio, United States [?]
2.5 miles North bearing 356° from Genoa, Stark County, Ohio, United States
18.3 miles South bearing 172° from Akron, Summit County, Ohio, United States
48.5 miles South bearing 166° from Cleveland, Cuyahoga County, Ohio, United States
Last position: 2017-08-11 19:28:49 EDT (10d 23h8m ago)
2017-08-11 19:28:49 EDT local time at Perry Heights, United States [?]
Altitude: 1047 ft
Course: 124°
Speed: 5 MPH
Device: Yaesu: FTM-400DR (rig)
Last path: N8ATZ-9>TPTY1Q via WIDE1-1,WIDE2-1,qAO,KB8LFA-1 (good)
Positions stored: 5042
Other SSIDs: N8ATZ-10
Stations near current position of N8ATZ-9 - show more
callsign distance last heard - EDT      callsign distance last heard - EDT
Wd8MBE1.7 miles 156°2017-08-22 18:37:06 KB8BKZ-81.8 miles 176°2017-07-30 07:56:33
K8HSQ3.0 miles 317°2017-08-22 18:15:01 K8HSQ-93.0 miles 317°2017-08-22 12:51:36
dw00193.2 miles 320°2017-08-22 18:35:06 AB8JL-93.7 miles 301°2017-08-05 11:07:18
W8JKC-53.7 miles 46°2017-08-04 17:54:30 W8JKC-103.8 miles 41°2017-08-03 22:09:53
EW50753.9 miles 109°2017-08-22 18:27:13 N8HHV-54.5 miles 119°2017-07-29 19:02:52
N8ATZ-105.0 miles 98°2017-08-22 18:35:28 N8MWS-45.0 miles 312°2017-08-22 16:00:48
KB8OTK-96.8 miles 147°2017-08-22 13:24:50 KCAK6.9 miles 9°2017-08-19 13:40:42
KB8OTK-57.8 miles 151°2017-08-22 18:13:29 KB8OTK-87.8 miles 152°2017-08-15 19:09:08
KB8OTK-77.8 miles 151°2017-08-18 20:44:20 WA8GXM-108.2 miles 265°2017-08-22 18:35:29
KA8DJN8.9 miles 357°2017-08-16 18:47:07 CLESVRI7A11.3 miles 104°2017-08-19 14:34:37
Stations which heard N8ATZ-9 directly on radio –
callsign pkts first heard - EDT last heard longest (tx => rx) longest at - EDT
KC8YVF 3 2017-08-11 13:08:12 2017-08-11 13:11:26 EN83AL > EN73XK 3.8 miles 221° 2017-08-11 13:11:26
W8EUP-15 17 2017-08-07 11:22:48 2017-08-11 09:30:39 EN76IN > EN76TC 52.9 miles 130° 2017-08-10 11:01:08
K8TIH 3 2017-08-06 15:10:11 2017-08-11 16:06:48 EN81FN > EN81EJ 13.5 miles 195° 2017-08-11 16:06:48
KB8PXM 1 2017-08-06 12:30:59 2017-08-06 12:30:59 EN90DT > EN90DQ 6.9 miles 185° 2017-08-06 12:30:59
K8UI-1 12 2017-08-06 14:09:29 2017-08-11 18:20:51 EN80UU > EN81SH 31.8 miles 341° 2017-08-11 18:20:51
K8HSQ 5 2017-08-06 11:39:57 2017-08-11 19:26:28 EN90DT > EN90FU 10.4 miles 68° 2017-08-06 12:32:25
W8WE-1 1 2017-08-11 18:14:05 2017-08-11 18:14:05 EN80TV > EN80RR 15.7 miles 214° 2017-08-11 18:14:05
K8GPS-10 1 2017-08-11 18:50:51 2017-08-11 18:50:51 EN90BT > EN80WH 36.5 miles 205° 2017-08-11 18:50:51
WX8APX 1 2017-08-11 11:04:44 2017-08-11 11:04:44 EN74PN > EN74PV 22.5 miles 359° 2017-08-11 11:04:44
HOLLY 4 2017-08-06 16:51:16 2017-08-11 14:30:03 EN83CG > EN82FT 31.2 miles 160° 2017-08-06 17:21:43
CHLSEA 3 2017-08-06 16:15:00 2017-08-11 15:45:35 EN82DH > EN72XI 18.1 miles 281° 2017-08-11 15:45:35
MIDLDN 3 2017-08-11 12:35:54 2017-08-11 13:28:20 EN83AM > EN73VO 13.4 miles 303° 2017-08-11 12:35:54
WD8DX-10 1 2017-08-11 10:34:03 2017-08-11 10:34:03 EN75PA > EN75QA 1.8 miles 46° 2017-08-11 10:34:03
KB8LFA-1 2 2017-08-06 12:03:45 2017-08-11 19:28:49 EN90GT > EN91DA 16.9 miles 320° 2017-08-11 19:28:49
N8NJ-10 1 2017-08-11 16:07:19 2017-08-11 16:07:19 EN81FN > EN81GO 7.5 miles 76° 2017-08-11 16:07:19
RITTMN 3 2017-08-06 11:42:30 2017-08-11 18:56:21 EN90GT > EN90CX 20.8 miles 308° 2017-08-06 11:42:30

Only position packets which were originated by the station are shown here. The range statistics show some extra long hops, because some digipeaters do not correctly add themselves to the digipeater path. Please check the raw packets.
About this site
This page shows real-time information collected from the Automatic Position Reporting System Internet network (APRS-IS). APRS is used by amateur (ham) radio operators to transmit real-time position information, weather data, telemetry and messages over the radio. A vehicle equipped with a GPS receiver, a VHF transmitter or HF transceiver and a small computer device called a tracker transmits it's location, speed and course in a small data packet, which is then received by a nearby iGate receiving site which forwards the packet on the Internet. Systems connected to the Internet can send information on the APRS-IS without a radio transmitter, or collect and display information transmitted anywhere in the world.
FAQ · Blog · Discussion group · Linking to aprs.fi · AIS sites · Service status · Database statistics · Advertising on aprs.fi · Technical details · API · Change log · Planned changes · Credits and thanks · Terms Of Service · iPhone/iPad APRS